createdAt,value
2018-02-27T00:01:45.049Z,6.53
2018-02-27T00:04:13.109Z,8.83
2018-02-27T00:06:41.233Z,10.83
2018-02-27T00:09:09.201Z,11.50
2018-02-27T00:11:37.135Z,12.90
2018-02-27T00:14:05.030Z,9.33
2018-02-27T00:16:32.927Z,10.40
2018-02-27T00:19:00.846Z,12.10
2018-02-27T00:21:28.729Z,10.70
2018-02-27T00:23:56.612Z,13.97
2018-02-27T00:26:24.550Z,9.50
2018-02-27T00:28:52.395Z,9.83
2018-02-27T00:31:20.268Z,14.33
2018-02-27T00:33:48.192Z,13.17
2018-02-27T00:36:16.142Z,9.60
2018-02-27T00:38:44.115Z,6.93
2018-02-27T00:41:11.990Z,8.87
2018-02-27T00:43:39.878Z,13.60
2018-02-27T00:46:07.792Z,11.63
2018-02-27T00:48:35.643Z,11.37
2018-02-27T00:51:04.333Z,12.90
2018-02-27T00:53:32.245Z,10.73
2018-02-27T00:56:00.168Z,11.43
2018-02-27T00:58:28.045Z,11.77
2018-02-27T01:04:27.187Z,12.90
2018-02-27T01:06:57.712Z,16.93
2018-02-27T01:09:25.703Z,9.63
2018-02-27T01:11:53.817Z,4.80
2018-02-27T01:14:21.889Z,9.33
2018-02-27T01:16:50.224Z,16.70
2018-02-27T01:19:18.322Z,9.63
2018-02-27T01:21:46.819Z,12.43
2018-02-27T01:24:14.865Z,11.17
2018-02-27T01:26:42.942Z,14.80
2018-02-27T01:29:10.920Z,9.87
2018-02-27T01:31:38.875Z,16.40
2018-02-27T01:34:06.801Z,11.40
2018-02-27T01:36:34.840Z,15.13
2018-02-27T01:39:02.801Z,9.97
2018-02-27T01:41:30.704Z,10.03
2018-02-27T01:43:58.687Z,9.27
2018-02-27T01:46:26.721Z,16.20
2018-02-27T01:48:54.582Z,9.77
2018-02-27T01:51:22.525Z,12.43
2018-02-27T01:53:50.899Z,15.30
2018-02-27T01:56:18.777Z,11.50
2018-02-27T01:58:46.710Z,11.40
2018-02-27T02:01:14.659Z,15.53
2018-02-27T02:03:42.576Z,13.10
2018-02-27T02:06:10.614Z,9.57
2018-02-27T02:08:38.575Z,15.30
2018-02-27T02:11:06.481Z,20.57
2018-02-27T02:13:34.451Z,10.80
2018-02-27T02:16:02.410Z,9.13
2018-02-27T02:18:30.289Z,14.80
2018-02-27T02:20:58.168Z,17.80
2018-02-27T02:23:26.029Z,11.23
2018-02-27T02:25:53.910Z,7.40
2018-02-27T02:28:22.863Z,13.37
2018-02-27T02:30:50.783Z,14.20
2018-02-27T02:33:18.656Z,14.30
2018-02-27T02:35:46.527Z,17.80
2018-02-27T02:38:14.435Z,11.60
2018-02-27T02:40:42.332Z,16.47
2018-02-27T02:43:10.246Z,12.13
2018-02-27T02:45:38.131Z,12.43
2018-02-27T02:48:06.099Z,14.60
2018-02-27T02:50:33.983Z,14.70
2018-02-27T02:53:01.847Z,11.57
2018-02-27T02:55:29.802Z,10.27
2018-02-27T02:57:57.695Z,12.90
2018-02-27T03:00:25.553Z,11.30
2018-02-27T03:02:53.420Z,15.73
2018-02-27T03:05:21.310Z,13.77
2018-02-27T03:07:49.169Z,10.83
2018-02-27T03:10:17.079Z,11.63
2018-02-27T03:12:44.973Z,15.93
2018-02-27T03:15:12.908Z,13.10
2018-02-27T03:17:40.810Z,15.37
2018-02-27T03:20:08.785Z,12.33
2018-02-27T03:22:36.653Z,11.63
2018-02-27T03:25:04.537Z,8.23
2018-02-27T03:27:32.429Z,14.73
2018-02-27T03:30:00.290Z,12.53
2018-02-27T03:32:28.158Z,10.20
2018-02-27T03:34:56.059Z,10.33
2018-02-27T03:37:23.901Z,11.10
2018-02-27T03:39:51.783Z,9.10
2018-02-27T03:42:19.658Z,8.40
2018-02-27T03:44:47.522Z,8.93
2018-02-27T03:47:15.389Z,10.60
2018-02-27T03:49:43.288Z,10.03
2018-02-27T03:52:11.237Z,9.30
2018-02-27T03:54:39.098Z,10.63
2018-02-27T03:57:06.980Z,10.60
2018-02-27T03:59:34.931Z,11.37
2018-02-27T04:02:02.782Z,8.97
2018-02-27T04:04:30.727Z,10.43
2018-02-27T04:06:58.602Z,7.40
2018-02-27T04:09:26.525Z,12.73
2018-02-27T04:11:54.777Z,7.23
2018-02-27T04:14:22.739Z,6.50
2018-02-27T04:16:50.678Z,8.03
2018-02-27T04:19:18.655Z,8.10
2018-02-27T04:21:46.562Z,11.20
2018-02-27T04:24:14.461Z,6.77
2018-02-27T04:26:42.498Z,11.30
2018-02-27T04:29:10.376Z,8.90
2018-02-27T04:31:38.274Z,12.07
2018-02-27T04:34:06.408Z,9.80
2018-02-27T04:36:34.574Z,5.33
2018-02-27T04:39:02.608Z,4.93
2018-02-27T04:41:30.507Z,10.60
2018-02-27T04:43:58.380Z,8.17
2018-02-27T04:46:26.296Z,9.53
2018-02-27T04:48:54.176Z,16.43
2018-02-27T04:51:22.069Z,13.10
2018-02-27T04:53:49.952Z,9.97
2018-02-27T04:56:17.976Z,13.00
2018-02-27T04:58:45.868Z,6.70
2018-02-27T05:01:13.744Z,14.57
2018-02-27T05:03:41.796Z,6.00
2018-02-27T05:06:09.751Z,12.73
2018-02-27T05:08:37.662Z,8.53
2018-02-27T05:11:05.615Z,10.83
2018-02-27T05:13:33.541Z,13.33
2018-02-27T05:16:01.556Z,9.63
2018-02-27T05:18:29.591Z,9.67
2018-02-27T05:20:57.587Z,11.37
2018-02-27T05:23:25.444Z,12.10
2018-02-27T05:25:53.329Z,9.10
2018-02-27T05:28:21.212Z,10.37
2018-02-27T05:30:49.273Z,7.30
2018-02-27T05:33:17.161Z,12.87
2018-02-27T05:35:45.004Z,10.63
2018-02-27T05:38:12.891Z,7.37
2018-02-27T05:40:40.780Z,13.40
2018-02-27T05:43:08.652Z,11.90
2018-02-27T05:45:36.609Z,13.60
2018-02-27T05:48:04.444Z,11.10
2018-02-27T05:50:32.317Z,12.70
2018-02-27T05:53:00.278Z,13.30
2018-02-27T05:55:28.164Z,14.23
2018-02-27T05:57:56.118Z,18.93
2018-02-27T06:00:24.035Z,12.10
2018-02-27T06:02:51.914Z,13.23
2018-02-27T06:05:19.782Z,12.53
2018-02-27T06:07:47.679Z,11.33
2018-02-27T06:10:15.691Z,11.53
2018-02-27T06:12:43.555Z,11.37
2018-02-27T06:15:11.432Z,12.27
2018-02-27T06:17:39.367Z,15.00
2018-02-27T06:20:07.548Z,12.40
2018-02-27T06:22:35.483Z,22.13
2018-02-27T06:25:03.331Z,17.60
2018-02-27T06:27:31.203Z,14.40
2018-02-27T06:29:59.104Z,15.50
2018-02-27T06:32:27.000Z,17.90
2018-02-27T06:34:54.962Z,14.57
2018-02-27T06:37:22.871Z,11.40
2018-02-27T06:39:50.695Z,12.07
2018-02-27T06:42:18.640Z,16.53
2018-02-27T06:44:46.671Z,12.60
2018-02-27T06:47:14.558Z,12.97
2018-02-27T06:49:42.448Z,16.30
2018-02-27T06:52:10.315Z,12.43
2018-02-27T06:54:38.160Z,14.87
2018-02-27T06:57:06.024Z,18.33
2018-02-27T06:59:33.875Z,11.87
2018-02-27T07:02:01.390Z,17.97
2018-02-27T07:04:27.561Z,14.53
2018-02-27T07:06:53.664Z,18.03
2018-02-27T07:09:19.773Z,10.80
2018-02-27T07:11:46.700Z,13.67
2018-02-27T07:14:12.790Z,16.80
2018-02-27T07:16:38.892Z,15.00
2018-02-27T07:19:05.114Z,14.30
2018-02-27T07:21:31.208Z,13.50
2018-02-27T07:23:59.122Z,13.10
2018-02-27T07:26:27.000Z,10.80
2018-02-27T07:28:54.870Z,24.07
2018-02-27T07:31:22.728Z,12.03
2018-02-27T07:33:50.657Z,22.27
2018-02-27T07:36:18.621Z,15.10
2018-02-27T07:38:46.470Z,16.10
2018-02-27T07:41:14.432Z,12.57
2018-02-27T07:43:42.384Z,15.73
2018-02-27T07:46:10.336Z,13.33
2018-02-27T07:48:38.209Z,16.20
2018-02-27T07:51:06.143Z,15.17
2018-02-27T07:53:34.020Z,17.80
2018-02-27T07:56:01.983Z,17.17
2018-02-27T07:58:29.853Z,11.93
2018-02-27T08:00:58.203Z,18.03
2018-02-27T08:03:26.128Z,17.43
2018-02-27T08:05:56.048Z,15.63
2018-02-27T08:08:23.919Z,15.00
2018-02-27T08:10:51.805Z,17.03
2018-02-27T08:13:19.691Z,16.37
2018-02-27T08:15:48.153Z,15.03
2018-02-27T08:18:16.065Z,15.43
2018-02-27T08:20:43.923Z,12.63
2018-02-27T08:23:11.776Z,18.07
2018-02-27T08:25:39.654Z,14.17
2018-02-27T08:28:07.526Z,16.60
2018-02-27T08:30:35.358Z,13.37
2018-02-27T08:33:03.240Z,14.13
2018-02-27T08:35:31.085Z,12.70
2018-02-27T08:37:59.128Z,14.23
2018-02-27T08:40:27.362Z,17.67
2018-02-27T08:42:55.216Z,13.60
2018-02-27T08:45:23.051Z,11.87
2018-02-27T08:47:50.932Z,12.63
2018-02-27T08:50:18.768Z,14.60
2018-02-27T08:52:46.607Z,8.80
2018-02-27T08:55:15.011Z,9.23
2018-02-27T08:57:42.923Z,10.50
2018-02-27T09:00:10.767Z,12.47
2018-02-27T09:02:38.680Z,8.83
2018-02-27T09:05:06.573Z,10.43
2018-02-27T09:07:34.428Z,14.60
2018-02-27T09:10:02.364Z,12.50
2018-02-27T09:12:30.291Z,10.60
2018-02-27T09:14:58.283Z,11.07
2018-02-27T09:17:26.180Z,18.70
2018-02-27T09:19:54.045Z,10.10
2018-02-27T09:22:21.883Z,10.90
2018-02-27T09:24:49.769Z,24.63
2018-02-27T09:27:17.632Z,13.10
2018-02-27T09:29:45.481Z,9.50
2018-02-27T09:32:13.520Z,11.47
2018-02-27T09:34:41.389Z,14.00
2018-02-27T09:37:09.291Z,14.97
2018-02-27T09:39:37.168Z,21.47
2018-02-27T09:42:05.005Z,16.27
2018-02-27T09:44:32.865Z,13.60
2018-02-27T09:47:00.816Z,36.27
2018-02-27T09:49:28.676Z,13.37
2018-02-27T09:51:56.700Z,22.20
2018-02-27T09:54:24.563Z,19.30
2018-02-27T09:56:52.440Z,17.50
2018-02-27T09:59:20.312Z,24.17
2018-02-27T10:01:48.208Z,33.03
2018-02-27T10:04:16.039Z,15.10
2018-02-27T10:06:44.125Z,12.33
2018-02-27T10:09:11.992Z,27.03
2018-02-27T10:11:39.855Z,18.00
2018-02-27T10:14:07.742Z,23.83
2018-02-27T10:16:35.700Z,23.03
2018-02-27T10:19:03.577Z,22.10
2018-02-27T10:21:31.507Z,18.37
2018-02-27T10:23:59.404Z,13.90
2018-02-27T10:26:27.263Z,12.30
2018-02-27T10:28:55.192Z,13.40
2018-02-27T10:31:23.039Z,11.17
2018-02-27T10:33:50.950Z,13.13
2018-02-27T10:36:18.798Z,13.70
2018-02-27T10:38:46.718Z,13.37
2018-02-27T10:41:14.618Z,8.30
2018-02-27T10:43:42.630Z,9.17
2018-02-27T10:46:10.517Z,7.90
2018-02-27T10:48:38.449Z,12.43
2018-02-27T10:51:06.312Z,7.30
2018-02-27T10:53:34.152Z,11.47
2018-02-27T10:56:02.028Z,13.70
2018-02-27T10:58:29.908Z,12.17
2018-02-27T11:00:57.859Z,21.37
2018-02-27T11:03:25.726Z,10.90
2018-02-27T11:05:53.745Z,10.93
2018-02-27T11:08:21.651Z,10.80
2018-02-27T11:10:49.832Z,7.00
2018-02-27T11:13:17.749Z,8.97
2018-02-27T11:15:45.701Z,8.93
2018-02-27T11:18:13.585Z,15.10
2018-02-27T11:20:41.540Z,7.87
2018-02-27T11:23:09.451Z,9.00
2018-02-27T11:25:37.308Z,7.90
2018-02-27T11:28:05.567Z,9.70
2018-02-27T11:30:34.027Z,13.03
2018-02-27T11:33:02.408Z,11.00
2018-02-27T11:35:31.814Z,9.70
2018-02-27T11:38:00.125Z,10.47
2018-02-27T11:40:28.471Z,6.47
2018-02-27T11:42:57.009Z,10.00
2018-02-27T11:45:25.332Z,7.30
2018-02-27T11:47:53.747Z,12.50
2018-02-27T11:50:21.636Z,10.07
2018-02-27T11:52:49.485Z,12.27
2018-02-27T11:55:17.374Z,11.53
2018-02-27T11:57:45.450Z,10.70
2018-02-27T12:00:13.533Z,11.37
2018-02-27T12:02:41.371Z,6.43
2018-02-27T12:05:09.238Z,9.70
2018-02-27T12:07:37.152Z,15.30
2018-02-27T12:10:05.105Z,13.90
2018-02-27T12:12:33.015Z,8.30
2018-02-27T12:15:00.857Z,32.27
2018-02-27T12:17:30.039Z,8.73
2018-02-27T12:19:57.922Z,9.30
2018-02-27T12:22:25.811Z,8.43
2018-02-27T12:24:53.753Z,7.07
2018-02-27T12:27:21.654Z,5.43
2018-02-27T12:29:49.564Z,6.10
2018-02-27T12:32:17.612Z,11.43
2018-02-27T12:34:45.528Z,7.27
2018-02-27T12:37:13.414Z,9.73
2018-02-27T12:39:41.043Z,11.30
2018-02-27T12:42:07.897Z,23.50
2018-02-27T12:44:35.796Z,15.47
2018-02-27T12:47:03.719Z,16.60
2018-02-27T12:49:29.778Z,19.80
2018-02-27T12:51:57.724Z,11.57
2018-02-27T12:54:25.701Z,11.60
2018-02-27T12:56:53.581Z,12.53
2018-02-27T12:59:22.963Z,6.50
2018-02-27T13:01:50.826Z,7.40
2018-02-27T13:04:18.691Z,10.00
2018-02-27T13:06:46.598Z,10.03
2018-02-27T13:09:14.436Z,7.93
2018-02-27T13:11:42.308Z,9.27
2018-02-27T13:14:08.497Z,14.23
2018-02-27T13:16:36.417Z,7.90
2018-02-27T13:19:04.292Z,9.33
2018-02-27T13:21:32.164Z,7.93
2018-02-27T13:24:00.106Z,8.33
2018-02-27T13:26:29.323Z,4.87
2018-02-27T13:28:57.256Z,8.93
2018-02-27T13:31:25.192Z,9.83
2018-02-27T13:33:54.227Z,20.83
2018-02-27T13:36:22.287Z,14.93
2018-02-27T13:38:50.246Z,12.63
2018-02-27T13:41:18.114Z,10.70
2018-02-27T13:43:45.956Z,7.27
2018-02-27T13:46:13.849Z,9.47
2018-02-27T13:48:49.956Z,7.57
2018-02-27T13:51:18.181Z,10.30
2018-02-27T13:53:46.579Z,8.70
2018-02-27T13:56:14.452Z,4.90
2018-02-27T13:58:42.374Z,9.77
2018-02-27T14:01:10.232Z,19.33
2018-02-27T14:03:39.805Z,6.00
2018-02-27T14:06:07.679Z,7.83
2018-02-27T14:08:35.528Z,12.00
2018-02-27T14:11:03.800Z,15.27
2018-02-27T14:13:31.708Z,9.73
2018-02-27T14:15:59.541Z,12.33
2018-02-27T14:18:27.495Z,11.03
2018-02-27T14:20:55.355Z,8.37
2018-02-27T14:23:23.215Z,10.60
2018-02-27T14:25:51.108Z,10.70
2018-02-27T14:28:18.959Z,6.70
2018-02-27T14:30:46.820Z,7.10
2018-02-27T14:33:14.752Z,6.60
2018-02-27T14:35:42.646Z,10.70
2018-02-27T14:38:10.516Z,5.57
2018-02-27T14:40:38.410Z,15.40
2018-02-27T14:43:06.270Z,9.20
2018-02-27T14:45:34.104Z,9.70
2018-02-27T14:48:01.992Z,8.53
2018-02-27T14:50:29.896Z,12.67
2018-02-27T14:52:57.761Z,12.43
2018-02-27T14:55:25.674Z,5.37
2018-02-27T14:57:53.528Z,6.50
2018-02-27T15:00:21.388Z,16.37
2018-02-27T15:02:49.258Z,8.90
2018-02-27T15:05:17.127Z,8.37
2018-02-27T15:07:44.975Z,27.33
2018-02-27T15:10:12.966Z,10.40
2018-02-27T15:12:40.822Z,7.70
2018-02-27T15:15:08.670Z,11.77
2018-02-27T15:17:36.660Z,10.03
2018-02-27T15:20:04.665Z,9.33
2018-02-27T15:22:32.733Z,7.40
2018-02-27T15:25:04.421Z,9.23
2018-02-27T15:27:33.925Z,10.00
2018-02-27T15:30:01.780Z,10.03
2018-02-27T15:32:29.701Z,10.10
2018-02-27T15:34:57.576Z,8.03
2018-02-27T15:37:25.450Z,8.60
2018-02-27T15:39:53.341Z,11.20
2018-02-27T15:42:21.208Z,11.67
2018-02-27T15:44:53.119Z,14.93
2018-02-27T15:47:21.065Z,10.73
2018-02-27T15:49:49.051Z,7.83
2018-02-27T15:52:16.904Z,13.67
2018-02-27T15:54:44.774Z,5.47
2018-02-27T15:57:13.165Z,11.47
2018-02-27T15:59:41.217Z,9.97
2018-02-27T16:02:09.075Z,8.40
2018-02-27T16:04:36.943Z,25.57
2018-02-27T16:07:04.860Z,13.70
2018-02-27T16:09:32.779Z,15.90
2018-02-27T16:12:00.630Z,11.50
2018-02-27T16:14:28.517Z,14.70
2018-02-27T16:16:56.377Z,15.20
2018-02-27T16:19:24.236Z,15.90
2018-02-27T16:21:52.141Z,13.33
2018-02-27T16:24:20.071Z,16.83
2018-02-27T16:26:47.933Z,12.67
2018-02-27T16:29:15.925Z,14.03
2018-02-27T16:31:43.834Z,20.93
2018-02-27T16:34:11.695Z,24.10
2018-02-27T16:36:39.606Z,17.73
2018-02-27T16:39:07.465Z,18.00
2018-02-27T16:41:35.323Z,16.70
2018-02-27T16:44:03.208Z,14.47
2018-02-27T16:46:31.080Z,18.50
2018-02-27T16:48:59.017Z,20.37
2018-02-27T16:51:26.915Z,17.10
2018-02-27T16:53:54.805Z,11.20
2018-02-27T16:56:22.744Z,20.33
2018-02-27T16:58:50.632Z,17.47
2018-02-27T17:01:18.524Z,17.00
2018-02-27T17:03:46.402Z,19.27
2018-02-27T17:06:14.293Z,18.63
2018-02-27T17:08:42.297Z,20.43
2018-02-27T17:11:10.233Z,17.63
2018-02-27T17:13:38.163Z,15.57
2018-02-27T17:16:06.008Z,14.87
2018-02-27T17:18:33.957Z,25.07
2018-02-27T17:21:01.906Z,22.93
2018-02-27T17:23:29.885Z,25.17
2018-02-27T17:25:57.779Z,24.80
2018-02-27T17:28:25.690Z,22.10
2018-02-27T17:30:53.574Z,19.73
2018-02-27T17:33:21.554Z,18.47
2018-02-27T17:35:49.429Z,17.13
2018-02-27T17:38:17.321Z,22.10
2018-02-27T17:40:45.197Z,19.23
2018-02-27T17:43:13.078Z,27.50
2018-02-27T17:45:40.960Z,23.20
2018-02-27T17:48:08.808Z,20.47
2018-02-27T17:50:36.848Z,25.93
2018-02-27T17:53:05.630Z,23.37
2018-02-27T17:55:33.560Z,19.43
2018-02-27T17:58:01.463Z,27.53
2018-02-27T18:00:29.320Z,32.47
2018-02-27T18:02:57.200Z,23.90
2018-02-27T18:05:25.064Z,20.90
2018-02-27T18:07:52.969Z,28.90
2018-02-27T18:10:20.878Z,26.63
2018-02-27T18:12:49.142Z,17.30
2018-02-27T18:15:19.312Z,22.03
2018-02-27T18:17:47.238Z,18.50
2018-02-27T18:20:15.307Z,19.90
2018-02-27T18:22:43.496Z,33.07
2018-02-27T18:25:18.353Z,27.27
2018-02-27T18:27:46.262Z,24.30
2018-02-27T18:30:14.124Z,24.00
2018-02-27T18:32:42.010Z,27.47
2018-02-27T18:35:10.956Z,23.50
2018-02-27T18:37:39.437Z,30.77
2018-02-27T18:40:07.360Z,21.70
2018-02-27T18:42:35.261Z,31.70
2018-02-27T18:45:03.139Z,25.00
2018-02-27T18:47:31.000Z,25.17
2018-02-27T18:49:58.893Z,17.70
2018-02-27T18:52:26.760Z,30.47
2018-02-27T18:54:54.664Z,27.07
2018-02-27T18:57:22.816Z,20.90
2018-02-27T18:59:50.839Z,22.13
2018-02-27T19:02:18.686Z,23.30
2018-02-27T19:04:46.611Z,26.00
2018-02-27T19:07:14.634Z,28.10
2018-02-27T19:09:42.770Z,23.67
2018-02-27T19:12:10.695Z,22.33
2018-02-27T19:14:38.544Z,22.37
2018-02-27T19:17:06.407Z,22.87
2018-02-27T19:19:34.289Z,20.67
2018-02-27T19:22:02.149Z,24.70
2018-02-27T19:24:30.102Z,29.00
2018-02-27T19:26:58.133Z,38.07
2018-02-27T19:29:26.029Z,29.10
2018-02-27T19:31:54.857Z,27.97
2018-02-27T19:34:22.779Z,23.90
2018-02-27T19:36:50.722Z,27.57
2018-02-27T19:39:18.591Z,28.10
2018-02-27T19:41:46.724Z,30.43
2018-02-27T19:44:14.608Z,29.50
2018-02-27T19:46:42.589Z,23.00
2018-02-27T19:49:10.674Z,32.13
2018-02-27T19:51:38.576Z,24.40
2018-02-27T19:54:07.396Z,27.03
2018-02-27T19:56:35.299Z,15.83
2018-02-27T19:59:03.240Z,23.17
2018-02-27T20:01:31.134Z,34.03
2018-02-27T20:03:59.008Z,32.47
2018-02-27T20:06:26.888Z,23.57
2018-02-27T20:08:54.799Z,28.07
2018-02-27T20:11:23.034Z,26.33
2018-02-27T20:13:51.017Z,34.27
2018-02-27T20:16:18.890Z,25.33
2018-02-27T20:18:46.879Z,27.03
2018-02-27T20:21:14.856Z,21.83
2018-02-27T20:23:49.068Z,27.43
2018-02-27T20:26:16.979Z,20.03
2018-02-27T20:28:51.171Z,24.40
2018-02-27T20:31:19.280Z,26.40
2018-02-27T20:33:47.283Z,16.20
2018-02-27T20:36:15.198Z,13.53
2018-02-27T20:39:02.018Z,14.20
2018-02-27T20:41:30.129Z,22.73
2018-02-27T20:43:58.073Z,21.40
2018-02-27T20:46:25.993Z,15.63
2018-02-27T20:48:53.895Z,24.70
2018-02-27T20:51:21.764Z,14.53
2018-02-27T20:53:50.523Z,13.10
2018-02-27T20:56:18.467Z,11.33
2018-02-27T20:58:45.973Z,14.33
2018-02-27T21:01:12.131Z,9.37
2018-02-27T21:03:38.424Z,10.90
2018-02-27T21:06:05.053Z,10.00
2018-02-27T21:08:31.556Z,12.93
2018-02-27T21:10:59.163Z,13.83
2018-02-27T21:13:25.387Z,16.00
2018-02-27T21:15:51.533Z,12.27
2018-02-27T21:18:18.493Z,19.33
2018-02-27T21:20:45.380Z,15.53
2018-02-27T21:23:11.595Z,16.97
2018-02-27T21:25:37.947Z,7.60
2018-02-27T21:28:04.636Z,24.83
2018-02-27T21:30:31.289Z,17.00
2018-02-27T21:32:57.849Z,12.80
2018-02-27T21:35:24.003Z,11.90
2018-02-27T21:37:50.199Z,10.03
2018-02-27T21:40:16.672Z,24.10
2018-02-27T21:42:42.822Z,21.83
2018-02-27T21:45:09.097Z,16.00
2018-02-27T21:47:35.985Z,11.47
2018-02-27T21:50:02.322Z,10.73
2018-02-27T21:52:28.636Z,13.83
2018-02-27T21:54:54.777Z,15.47
2018-02-27T21:57:20.921Z,30.90
2018-02-27T21:59:48.046Z,14.33
2018-02-27T22:02:14.209Z,28.23
2018-02-27T22:04:41.104Z,11.90
2018-02-27T22:07:09.148Z,16.90
2018-02-27T22:09:35.494Z,19.80
2018-02-27T22:12:02.371Z,8.50
2018-02-27T22:14:29.361Z,11.33
2018-02-27T22:16:55.488Z,17.97
2018-02-27T22:19:21.576Z,15.90
2018-02-27T22:21:47.856Z,16.20
2018-02-27T22:24:13.981Z,18.27
2018-02-27T22:26:40.894Z,12.90
2018-02-27T22:29:07.161Z,22.97
2018-02-27T22:31:34.010Z,29.50
2018-02-27T22:34:00.973Z,24.00
2018-02-27T22:36:27.829Z,20.03
2018-02-27T22:38:53.921Z,19.47
2018-02-27T22:41:20.104Z,19.50
2018-02-27T22:43:46.234Z,12.63
2018-02-27T22:46:12.372Z,15.97
2018-02-27T22:48:38.831Z,21.83
2018-02-27T22:51:04.972Z,22.43
2018-02-27T22:53:32.160Z,15.43
2018-02-27T22:56:00.067Z,20.10
2018-02-27T22:58:28.053Z,17.70
2018-02-27T23:00:55.960Z,17.63
2018-02-27T23:03:23.808Z,11.97
2018-02-27T23:05:51.699Z,17.27
2018-02-27T23:08:19.557Z,14.43
2018-02-27T23:10:47.778Z,15.00
2018-02-27T23:13:15.730Z,23.23
2018-02-27T23:15:43.580Z,16.63
2018-02-27T23:18:11.508Z,19.93
2018-02-27T23:20:39.692Z,16.07
2018-02-27T23:23:08.034Z,21.93
2018-02-27T23:25:39.875Z,22.63
2018-02-27T23:28:08.837Z,16.10
2018-02-27T23:30:36.915Z,18.70
2018-02-27T23:33:04.973Z,16.70
2018-02-27T23:35:32.968Z,7.70
2018-02-27T23:38:00.847Z,19.93
2018-02-27T23:40:28.811Z,16.87
2018-02-27T23:42:56.733Z,16.93
2018-02-27T23:45:24.677Z,19.30
2018-02-27T23:47:52.630Z,16.83
2018-02-27T23:50:20.520Z,9.47
2018-02-27T23:52:48.387Z,16.97
2018-02-27T23:55:16.461Z,16.83
2018-02-27T23:57:44.345Z,17.67
